Time;durP1;ratioP1;P1;durP2;ratioP2;P2;SDS_P1;SDS_P2;PMS_P1;PMS_P2;Temp;Humidity;BMP_temperature;BMP_pressure;BME280_temperature;BME280_humidity;BME280_pressure;Samples;Min_cycle;Max_cycle;Signal;HPM_P1;HPM_P2
2021/04/13 00:01:12;;;;;;;1.38;1.27;;;3.30;99.90;;;;;;5052357;28;20164;-78
2021/04/13 00:03:41;;;;;;;1.27;1.27;;;3.10;99.90;;;;;;5052424;28;20170;-78
2021/04/13 00:06:07;;;;;;;0.98;0.88;;;2.90;99.90;;;;;;5052143;28;20199;-78
2021/04/13 00:08:33;;;;;;;0.55;0.55;;;3.10;99.90;;;;;;5052299;28;20209;-77
2021/04/13 00:11:04;;;;;;;0.93;0.50;;;3.00;99.90;;;;;;5052287;28;20171;-78
2021/04/13 00:13:30;;;;;;;1.27;1.17;;;2.90;99.90;;;;;;5055204;28;20191;-78
2021/04/13 00:16:05;;;;;;;0.30;0.30;;;2.80;99.90;;;;;;5055769;28;20187;-78
2021/04/13 00:18:34;;;;;;;0.30;0.30;;;2.90;99.90;;;;;;5055907;28;20162;-78
2021/04/13 00:21:05;;;;;;;0.40;0.40;;;2.90;99.90;;;;;;5055849;28;20175;-78
2021/04/13 00:23:31;;;;;;;0.30;0.30;;;3.00;99.90;;;;;;5054448;28;20662;-77
2021/04/13 00:26:00;;;;;;;0.30;0.30;;;3.30;99.90;;;;;;5055526;28;20602;-78
2021/04/13 00:28:29;;;;;;;0.70;0.70;;;3.30;99.90;;;;;;5055660;28;20183;-78
2021/04/13 00:30:58;;;;;;;0.47;0.47;;;3.10;99.90;;;;;;5054409;28;20167;-78
2021/04/13 00:33:27;;;;;;;0.40;0.40;;;3.20;99.90;;;;;;5055549;28;20179;-78
2021/04/13 00:36:12;;;;;;;0.85;0.85;;;3.10;99.90;;;;;;5055590;28;20219;-78
2021/04/13 00:38:44;;;;;;;0.80;0.80;;;3.10;99.90;;;;;;5055502;28;20284;-78
2021/04/13 00:41:30;;;;;;;0.97;0.97;;;3.10;99.90;;;;;;5054557;28;20226;-78
2021/04/13 00:44:09;;;;;;;1.35;1.35;;;3.10;99.90;;;;;;5054245;28;20151;-78
2021/04/13 00:46:46;;;;;;;0.75;0.75;;;3.20;99.90;;;;;;5054120;28;20187;-78
2021/04/13 00:49:15;;;;;;;0.70;0.70;;;2.90;99.90;;;;;;5052803;28;20175;-78
2021/04/13 00:51:54;;;;;;;1.95;1.00;;;3.00;99.90;;;;;;5054226;28;20266;-78
2021/04/13 00:54:37;;;;;;;0.50;0.50;;;3.00;99.90;;;;;;5052816;28;20587;-76
2021/04/13 00:57:25;;;;;;;0.50;0.50;;;3.00;99.90;;;;;;5053918;28;20705;-78
2021/04/13 00:59:54;;;;;;;0.60;0.60;;;3.00;99.90;;;;;;5054043;28;20181;-77
2021/04/13 01:02:31;;;;;;;0.70;0.70;;;2.80;99.90;;;;;;5053995;28;20563;-77
2021/04/13 01:05:18;;;;;;;0.50;0.50;;;2.80;99.90;;;;;;5053886;28;20169;-76
2021/04/13 01:07:50;;;;;;;1.13;1.00;;;3.00;99.90;;;;;;5053940;28;20147;-76
2021/04/13 01:10:33;;;;;;;0.80;0.80;;;3.00;99.90;;;;;;5052583;28;20634;-76
2021/04/13 01:13:45;;;;;;;6.80;1.23;;;2.90;99.90;;;;;;5053898;28;20167;-76
2021/04/13 01:16:13;;;;;;;1.00;1.00;;;2.90;99.90;;;;;;5011817;28;20694;-76
2021/04/13 01:18:41;;;;;;;0.50;0.50;;;2.90;99.90;;;;;;5012012;28;20168;-78
2021/04/13 01:21:39;;;;;;;2.42;1.50;;;2.90;99.90;;;;;;5034997;28;20259;-76
2021/04/13 01:24:10;;;;;;;0.40;0.40;;;2.60;99.90;;;;;;5052604;28;20185;-76
2021/04/13 01:26:43;;;;;;;0.67;0.67;;;2.70;99.90;;;;;;5053740;28;20280;-77
2021/04/13 01:29:09;;;;;;;10.23;1.40;;;2.80;99.90;;;;;;5053620;28;20619;-76
2021/04/13 01:34:18;;;;;;;0.47;0.47;;;2.80;99.90;;;;;;5053839;28;20217;-77
2021/04/13 01:36:49;;;;;;;0.70;0.70;;;2.90;99.90;;;;;;5052144;28;20202;-76
2021/04/13 01:39:22;;;;;;;6.17;2.20;;;2.80;99.90;;;;;;5052206;28;20174;-76
2021/04/13 01:41:58;;;;;;;0.37;0.37;;;2.70;99.90;;;;;;5034026;28;572182;-77
2021/04/13 01:44:48;;;;;;;0.43;0.43;;;2.80;99.90;;;;;;5054311;28;20250;-76
2021/04/13 01:47:17;;;;;;;0.73;0.73;;;2.90;99.90;;;;;;5048149;28;20689;-76
2021/04/13 01:49:49;;;;;;;0.68;0.68;;;3.00;99.90;;;;;;5054102;28;20175;-76
2021/04/13 01:52:30;;;;;;;0.60;0.60;;;3.00;99.90;;;;;;5054263;28;20167;-76
2021/04/13 01:55:24;;;;;;;0.60;0.60;;;2.90;99.90;;;;;;5052551;28;20219;-76
2021/04/13 01:57:58;;;;;;;0.50;0.50;;;2.90;99.90;;;;;;5054095;28;20213;-76
2021/04/13 02:00:52;;;;;;;0.60;0.60;;;3.00;99.90;;;;;;5053897;28;20258;-77
2021/04/13 02:03:26;;;;;;;2.47;1.30;;;2.80;99.90;;;;;;5046574;28;20651;-77
2021/04/13 02:05:57;;;;;;;1.17;1.08;;;2.60;99.90;;;;;;5053915;28;20245;-76
2021/04/13 02:08:35;;;;;;;0.70;0.70;;;2.60;99.90;;;;;;5054275;28;20250;-77
2021/04/13 02:11:11;;;;;;;0.90;0.90;;;2.60;99.90;;;;;;5057511;28;20159;-76
2021/04/13 02:13:46;;;;;;;0.80;0.80;;;2.70;99.90;;;;;;5056859;28;20216;-77
2021/04/13 02:16:22;;;;;;;4.53;1.10;;;2.70;99.90;;;;;;5057254;28;20222;-75
2021/04/13 02:18:51;;;;;;;0.80;0.80;;;2.60;99.90;;;;;;5079496;28;20211;-76
2021/04/13 02:21:29;;;;;;;0.40;0.40;;;2.50;99.90;;;;;;5079490;28;20190;-75
2021/04/13 02:23:59;;;;;;;1.17;1.17;;;2.50;99.90;;;;;;5079518;28;20173;-76
2021/04/13 02:26:25;;;;;;;0.40;0.40;;;2.40;99.90;;;;;;5073000;28;20209;-77
2021/04/13 02:28:52;;;;;;;0.60;0.60;;;2.40;99.90;;;;;;5077056;28;20665;-77
2021/04/13 02:31:37;;;;;;;2.87;0.93;;;2.60;99.90;;;;;;5077101;28;20147;-77
2021/04/13 02:34:23;;;;;;;0.30;0.30;;;2.40;99.90;;;;;;5060668;28;20205;-77
2021/04/13 02:36:55;;;;;;;2.28;0.82;;;2.20;99.90;;;;;;5053451;28;20187;-77
2021/04/13 02:39:24;;;;;;;0.60;0.60;;;2.30;99.90;;;;;;5052332;28;20155;-77
2021/04/13 02:41:54;;;;;;;1.43;1.33;;;2.40;99.90;;;;;;5053337;28;20236;-77
2021/04/13 02:44:23;;;;;;;1.17;1.17;;;2.40;99.90;;;;;;5053435;28;20155;-77
2021/04/13 02:46:53;;;;;;;7.03;2.10;;;2.40;99.90;;;;;;5053194;28;20258;-77
2021/04/13 02:49:20;;;;;;;1.43;1.43;;;2.60;99.90;;;;;;5053184;28;20163;-77
2021/04/13 02:51:56;;;;;;;0.77;0.77;;;2.60;99.90;;;;;;5053260;28;20181;-77
2021/04/13 02:54:29;;;;;;;0.60;0.60;;;2.60;99.90;;;;;;5053046;28;20198;-77
2021/04/13 02:56:58;;;;;;;0.60;0.60;;;2.40;99.90;;;;;;5052871;28;20251;-77
2021/04/13 02:59:27;;;;;;;7.93;3.50;;;2.30;99.90;;;;;;5052973;28;20167;-77
2021/04/13 03:02:08;;;;;;;0.50;0.50;;;2.20;99.90;;;;;;5051720;28;20221;-77
2021/04/13 03:04:40;;;;;;;0.37;0.37;;;2.10;99.90;;;;;;5053066;28;20167;-77
2021/04/13 03:07:06;;;;;;;0.43;0.43;;;2.30;99.90;;;;;;5052927;28;20203;-77
2021/04/13 03:09:35;;;;;;;1.57;1.47;;;2.30;99.90;;;;;;5053038;28;20202;-77
2021/04/13 03:12:04;;;;;;;1.63;1.53;;;2.20;99.90;;;;;;5052969;28;20504;-77
2021/04/13 03:14:57;;;;;;;2.22;1.42;;;2.20;99.90;;;;;;5052859;28;20195;-76
2021/04/13 03:17:28;;;;;;;0.50;0.50;;;2.40;99.90;;;;;;5050940;28;20798;-77
2021/04/13 03:20:03;;;;;;;0.50;0.50;;;2.60;99.90;;;;;;5052802;28;20186;-77
2021/04/13 03:22:30;;;;;;;20.03;1.70;;;2.50;99.90;;;;;;5053042;28;20179;-77
2021/04/13 03:24:57;;;;;;;0.73;0.73;;;2.30;99.90;;;;;;5052648;28;20233;-77
2021/04/13 03:27:28;;;;;;;0.83;0.83;;;2.20;99.90;;;;;;5052787;28;20187;-77
2021/04/13 03:30:12;;;;;;;0.80;0.80;;;2.10;99.90;;;;;;5052733;28;20253;-77
2021/04/13 03:32:46;;;;;;;0.63;0.63;;;2.10;99.90;;;;;;5051372;28;20167;-76
2021/04/13 03:35:14;;;;;;;0.50;0.50;;;2.10;99.90;;;;;;5052593;28;20731;-77
2021/04/13 03:37:43;;;;;;;5.50;3.13;;;2.40;99.90;;;;;;5052539;28;20215;-77
2021/04/13 03:40:13;;;;;;;22.37;1.60;;;2.70;99.90;;;;;;5052524;28;20203;-77
2021/04/13 03:42:39;;;;;;;0.70;0.70;;;3.00;99.90;;;;;;5052703;28;20251;-77
2021/04/13 03:45:07;;;;;;;0.87;0.83;;;3.00;99.90;;;;;;5052554;28;20170;-77
2021/04/13 03:47:36;;;;;;;1.43;1.33;;;2.70;99.90;;;;;;5054268;28;20221;-77
2021/04/13 03:50:12;;;;;;;1.90;1.27;;;2.50;99.90;;;;;;5056458;28;20167;-77
2021/04/13 03:52:38;;;;;;;0.80;0.80;;;2.40;99.90;;;;;;5056409;28;20657;-77
2021/04/13 03:55:33;;;;;;;0.60;0.60;;;2.40;99.90;;;;;;5056184;28;20213;-77
2021/04/13 03:58:18;;;;;;;1.13;1.13;;;2.40;99.90;;;;;;5047577;28;20178;-77
2021/04/13 04:00:44;;;;;;;1.20;1.10;;;2.70;99.90;;;;;;5054930;28;20199;-77
2021/04/13 04:03:11;;;;;;;1.83;1.73;;;2.60;99.90;;;;;;5056157;28;20202;-77
2021/04/13 04:05:48;;;;;;;1.73;1.33;;;2.70;99.90;;;;;;5054714;28;20171;-77
2021/04/13 04:08:28;;;;;;;1.03;0.80;;;2.50;99.90;;;;;;5054802;28;20668;-77
2021/04/13 04:10:54;;;;;;;1.67;1.57;;;2.70;99.90;;;;;;5056049;28;20161;-77
2021/04/13 04:13:31;;;;;;;1.17;1.17;;;2.50;99.90;;;;;;5055865;28;20282;-77
2021/04/13 04:16:07;;;;;;;0.60;0.60;;;2.50;99.90;;;;;;5055856;28;20206;-77
2021/04/13 04:18:37;;;;;;;0.80;0.73;;;2.50;99.90;;;;;;5055935;28;20258;-76
2021/04/13 04:21:15;;;;;;;3.73;2.40;;;2.40;99.90;;;;;;5055811;28;20167;-77
2021/04/13 04:23:42;;;;;;;3.60;1.53;;;2.60;99.90;;;;;;5055804;28;20200;-77
2021/04/13 04:26:08;;;;;;;0.60;0.60;;;2.60;99.90;;;;;;5055689;28;20211;-77
2021/04/13 04:28:39;;;;;;;0.97;0.87;;;2.50;99.90;;;;;;5055671;28;20195;-77
2021/04/13 04:31:35;;;;;;;0.50;0.50;;;2.40;99.90;;;;;;5054344;28;20159;-78
2021/04/13 04:34:14;;;;;;;1.40;1.37;;;2.40;99.90;;;;;;5055534;28;20555;-77
2021/04/13 04:36:51;;;;;;;3.23;1.80;;;2.50;99.90;;;;;;5054044;28;20712;-77
2021/04/13 04:39:36;;;;;;;1.15;1.15;;;2.60;99.90;;;;;;5055422;28;20167;-77
2021/04/13 04:42:11;;;;;;;2.00;1.43;;;2.70;99.90;;;;;;5054027;28;20179;-77
2021/04/13 04:44:38;;;;;;;0.80;0.80;;;2.70;99.90;;;;;;5055419;28;20158;-78
2021/04/13 04:47:37;;;;;;;2.83;1.37;;;2.70;99.90;;;;;;5055143;28;20209;-77
2021/04/13 04:50:04;;;;;;;1.00;1.00;;;2.60;99.90;;;;;;5053786;28;20172;-78
2021/04/13 04:52:29;;;;;;;0.77;0.77;;;2.70;99.90;;;;;;5053853;28;20182;-78
2021/04/13 04:54:55;;;;;;;46.13;2.00;;;2.70;99.90;;;;;;5053569;28;20203;-78
2021/04/13 04:57:21;;;;;;;0.80;0.80;;;2.60;99.90;;;;;;5055018;28;20186;-77
2021/04/13 04:59:46;;;;;;;2.30;2.20;;;2.50;99.90;;;;;;5054919;28;20614;-78
2021/04/13 05:02:12;;;;;;;1.20;1.10;;;2.40;99.90;;;;;;5055145;28;20210;-77
2021/04/13 05:04:37;;;;;;;0.60;0.60;;;2.50;99.90;;;;;;5055111;28;20167;-77
2021/04/13 05:07:03;;;;;;;0.90;0.90;;;2.40;99.90;;;;;;5054891;28;20183;-77
2021/04/13 05:09:28;;;;;;;2.10;1.90;;;2.40;99.90;;;;;;5055288;28;20221;-78
2021/04/13 05:11:54;;;;;;;0.50;0.50;;;2.40;99.90;;;;;;5055004;28;20250;-78
2021/04/13 05:14:19;;;;;;;1.87;1.70;;;2.50;99.90;;;;;;5054765;28;20206;-77
2021/04/13 05:16:45;;;;;;;0.80;0.80;;;2.80;99.90;;;;;;5054662;28;20187;-77
2021/04/13 05:19:10;;;;;;;1.20;1.17;;;2.70;99.90;;;;;;5054678;28;20167;-77
2021/04/13 05:21:36;;;;;;;0.67;0.67;;;2.50;99.90;;;;;;5054857;28;20982;-77
2021/04/13 05:24:02;;;;;;;14.43;2.53;;;2.80;99.90;;;;;;5054733;28;20569;-78
2021/04/13 05:26:27;;;;;;;0.90;0.90;;;2.80;99.90;;;;;;5054731;28;20194;-77
2021/04/13 05:28:53;;;;;;;1.07;0.97;;;2.90;99.90;;;;;;5054439;28;20237;-77
2021/04/13 05:31:18;;;;;;;1.60;1.60;;;3.10;99.90;;;;;;5054351;28;20160;-77
2021/04/13 05:33:44;;;;;;;2.30;2.20;;;3.20;99.90;;;;;;5054480;28;20195;-77
2021/04/13 05:36:10;;;;;;;1.97;1.87;;;3.20;99.90;;;;;;5054318;28;20194;-77
2021/04/13 05:38:41;;;;;;;1.67;1.40;;;3.20;99.90;;;;;;5054383;28;20167;-78
2021/04/13 05:41:10;;;;;;;4.80;1.90;;;3.00;99.90;;;;;;5053032;28;20694;-78
2021/04/13 05:43:38;;;;;;;3.17;1.42;;;2.80;99.90;;;;;;5054234;28;20167;-78
2021/04/13 05:46:04;;;;;;;1.70;1.60;;;3.10;99.90;;;;;;5053927;28;20669;-77
2021/04/13 05:48:30;;;;;;;1.08;1.08;;;3.20;99.90;;;;;;5054043;28;20171;-78
2021/04/13 05:50:56;;;;;;;1.03;1.03;;;3.30;99.90;;;;;;5054000;28;20225;-78
2021/04/13 05:53:22;;;;;;;3.50;2.30;;;3.50;99.90;;;;;;5053993;28;20251;-78
2021/04/13 05:55:49;;;;;;;2.77;1.77;;;3.60;99.90;;;;;;5052717;28;20261;-79
2021/04/13 05:58:20;;;;;;;2.47;1.90;;;3.50;99.90;;;;;;5053947;28;20208;-78
2021/04/13 06:00:49;;;;;;;1.30;1.30;;;3.50;99.90;;;;;;5052469;28;20171;-77
2021/04/13 06:03:16;;;;;;;0.80;0.80;;;3.70;99.90;;;;;;5053862;28;20573;-79
2021/04/13 06:05:42;;;;;;;0.93;0.93;;;3.70;99.90;;;;;;5053635;28;20251;-79
2021/04/13 06:08:10;;;;;;;4.40;2.08;;;4.00;99.90;;;;;;5053686;28;20639;-79
2021/04/13 06:10:35;;;;;;;1.48;1.38;;;4.20;99.90;;;;;;5053504;28;20505;-79
2021/04/13 06:13:01;;;;;;;5.90;2.38;;;4.30;99.90;;;;;;5053552;28;20197;-78
2021/04/13 06:15:29;;;;;;;2.20;2.00;;;4.60;99.90;;;;;;5051554;28;20247;-79
2021/04/13 06:17:55;;;;;;;1.88;1.52;;;4.60;99.90;;;;;;5053505;28;20187;-79
2021/04/13 06:20:22;;;;;;;4.85;2.47;;;4.60;99.90;;;;;;5053268;28;20177;-78
2021/04/13 06:22:49;;;;;;;3.08;2.78;;;4.60;99.90;;;;;;5051994;28;20550;-77
2021/04/13 06:25:21;;;;;;;3.50;3.22;;;4.70;99.90;;;;;;5053211;28;20167;-77
2021/04/13 06:27:47;;;;;;;2.20;2.10;;;4.60;99.90;;;;;;5053497;28;20528;-78
2021/04/13 06:30:13;;;;;;;2.35;2.22;;;4.80;99.90;;;;;;5053385;28;20167;-78
2021/04/13 06:32:42;;;;;;;5.43;1.33;;;5.00;99.90;;;;;;5050157;28;20155;-80
2021/04/13 06:35:08;;;;;;;1.95;1.70;;;5.10;99.90;;;;;;5046148;28;20219;-77
2021/04/13 06:37:35;;;;;;;2.55;2.05;;;5.00;99.90;;;;;;5050977;28;20521;-77
2021/04/13 06:40:04;;;;;;;1.33;1.33;;;5.20;99.90;;;;;;5050640;28;20207;-77
2021/04/13 06:42:45;;;;;;;1.40;1.30;;;5.30;99.90;;;;;;5050847;28;20612;-78
2021/04/13 06:45:30;;;;;;;0.52;0.52;;;5.40;99.90;;;;;;5051938;28;20246;-78
2021/04/13 06:48:09;;;;;;;0.80;0.80;;;5.70;99.90;;;;;;5052252;28;20162;-76
2021/04/13 06:50:51;;;;;;;1.80;1.70;;;5.70;99.90;;;;;;5051958;28;20246;-77
2021/04/13 06:54:05;;;;;;;1.02;1.02;;;5.80;99.90;;;;;;5051777;28;20265;-77
2021/04/13 06:56:49;;;;;;;3.95;1.88;;;6.10;99.90;;;;;;5051980;28;20228;-77
2021/04/13 06:59:18;;;;;;;0.82;0.82;;;6.50;99.90;;;;;;5050399;28;20635;-77
2021/04/13 07:01:58;;;;;;;0.82;0.82;;;6.50;99.90;;;;;;5051953;28;20614;-77
2021/04/13 07:04:26;;;;;;;1.45;1.35;;;6.40;99.90;;;;;;5051456;28;20533;-77
2021/04/13 07:07:13;;;;;;;2.47;2.30;;;6.20;99.90;;;;;;5051576;28;20190;-77
2021/04/13 07:09:43;;;;;;;1.27;1.27;;;6.30;99.90;;;;;;5051773;28;20752;-77
2021/04/13 07:12:24;;;;;;;1.10;1.05;;;6.40;99.90;;;;;;5052053;28;20166;-76
2021/04/13 07:14:55;;;;;;;5.70;1.45;;;6.50;99.90;;;;;;5050088;28;20658;-77
2021/04/13 07:17:50;;;;;;;2.42;2.22;;;6.60;99.90;;;;;;5051495;28;20241;-76
2021/04/13 07:20:26;;;;;;;0.50;0.50;;;6.70;99.90;;;;;;5051727;28;20178;-77
2021/04/13 07:23:01;;;;;;;1.67;1.58;;;6.70;99.90;;;;;;5054363;28;20245;-77
2021/04/13 07:25:33;;;;;;;15.35;0.88;;;6.80;99.90;;;;;;5053895;28;20174;-77
2021/04/13 07:28:11;;;;;;;1.33;1.23;;;6.80;99.90;;;;;;5054840;28;20167;-77
2021/04/13 07:30:50;;;;;;;1.08;1.05;;;6.90;99.90;;;;;;5055901;28;20165;-77
2021/04/13 07:33:24;;;;;;;0.52;0.52;;;6.90;99.90;;;;;;5055551;28;20182;-77
2021/04/13 07:35:54;;;;;;;0.77;0.77;;;6.90;99.90;;;;;;5052074;28;20264;-76
2021/04/13 07:38:25;;;;;;;0.35;0.22;;;7.00;99.90;;;;;;5046866;28;20624;-77
2021/04/13 07:40:54;;;;;;;0.20;0.20;;;7.10;99.90;;;;;;5042517;28;20295;-77
2021/04/13 07:43:26;;;;;;;0.30;0.30;;;7.10;99.90;;;;;;5047741;28;20186;-77
2021/04/13 07:46:25;;;;;;;10.63;0.88;;;7.20;99.90;;;;;;5054676;28;20191;-77
2021/04/13 07:49:15;;;;;;;2.00;1.48;;;7.40;99.90;;;;;;5054258;28;20171;-78
2021/04/13 07:52:15;;;;;;;9.30;1.83;;;7.60;99.90;;;;;;5039477;28;20198;-76
2021/04/13 07:55:02;;;;;;;0.40;0.40;;;7.80;99.90;;;;;;5053150;28;20203;-77
2021/04/13 07:57:36;;;;;;;0.50;0.50;;;7.70;99.90;;;;;;5055545;28;20244;-76
2021/04/13 08:00:14;;;;;;;1.80;1.70;;;7.60;99.90;;;;;;5055050;28;20766;-77
2021/04/13 08:02:40;;;;;;;0.38;0.38;;;7.80;99.90;;;;;;5056733;28;20163;-76
2021/04/13 08:05:09;;;;;;;1.35;1.35;;;8.00;99.90;;;;;;5074603;28;20205;-76
2021/04/13 08:07:41;;;;;;;0.20;0.20;;;8.00;99.90;;;;;;5075518;28;20178;-78
2021/04/13 08:10:28;;;;;;;0.90;0.43;;;8.20;99.90;;;;;;5068544;28;20171;-78
2021/04/13 08:13:10;;;;;;;0.20;0.20;;;8.40;99.90;;;;;;5051143;28;20174;-77
2021/04/13 08:15:41;;;;;;;0.20;0.20;;;8.60;99.90;;;;;;5047527;28;20211;-77
2021/04/13 08:18:12;;;;;;;0.70;0.70;;;8.80;99.90;;;;;;5056027;28;20167;-76
2021/04/13 08:20:44;;;;;;;0.20;0.20;;;8.70;99.90;;;;;;5057366;28;20186;-76
2021/04/13 08:23:36;;;;;;;1.60;1.50;;;8.10;99.90;;;;;;5057540;28;20170;-80
2021/04/13 08:26:27;;;;;;;0.93;0.93;;;8.10;99.90;;;;;;5056697;28;20186;-77
2021/04/13 08:29:16;;;;;;;0.20;0.20;;;8.30;99.90;;;;;;5059277;28;20194;-76
2021/04/13 08:34:47;;;;;;;1.10;0.55;;;7.60;99.90;;;;;;5063926;28;20221;-76
2021/04/13 08:37:41;;;;;;;0.85;0.85;;;7.50;99.90;;;;;;5063224;28;20239;-76
2021/04/13 08:40:22;;;;;;;0.65;0.60;;;7.40;99.90;;;;;;5067783;28;20203;-76
2021/04/13 08:43:07;;;;;;;0.20;0.20;;;7.40;99.90;;;;;;5063886;28;20241;-75
2021/04/13 08:46:04;;;;;;;0.30;0.30;;;7.40;99.90;;;;;;5069439;28;20626;-75
2021/04/13 08:48:47;;;;;;;0.20;0.20;;;7.50;99.90;;;;;;5064682;28;20172;-76
2021/04/13 08:51:41;;;;;;;0.25;0.25;;;8.00;99.90;;;;;;5060766;28;20189;-76
2021/04/13 08:54:19;;;;;;;3.30;1.45;;;8.30;99.90;;;;;;5051598;28;20211;-77
2021/04/13 08:57:02;;;;;;;0.57;0.57;;;8.40;99.90;;;;;;5054254;28;20186;-75
2021/04/13 08:59:39;;;;;;;1.25;0.73;;;8.50;99.90;;;;;;5055931;28;20521;-75
2021/04/13 09:02:38;;;;;;;0.10;0.10;;;8.70;99.90;;;;;;5054015;28;20167;-78
2021/04/13 09:05:26;;;;;;;13.57;0.88;;;8.70;99.90;;;;;;5048091;28;20191;-76
2021/04/13 09:08:02;;;;;;;0.47;0.47;;;8.80;99.90;;;;;;5054573;28;20174;-76
2021/04/13 09:10:39;;;;;;;0.20;0.20;;;8.80;99.90;;;;;;5052659;28;20179;-76
2021/04/13 09:13:35;;;;;;;0.20;0.20;;;8.80;99.90;;;;;;5053627;28;20507;-76
2021/04/13 09:16:07;;;;;;;0.20;0.20;;;8.90;99.90;;;;;;5053080;28;20670;-76
2021/04/13 09:18:51;;;;;;;0.20;0.20;;;9.00;99.90;;;;;;5054155;28;20163;-76
2021/04/13 09:21:38;;;;;;;0.20;0.20;;;8.80;99.90;;;;;;5052354;28;20179;-75
2021/04/13 09:24:42;;;;;;;0.47;0.47;;;9.00;99.90;;;;;;5074058;28;20663;-75
2021/04/13 09:27:34;;;;;;;0.30;0.30;;;9.30;99.90;;;;;;5061910;28;20336;-77
2021/04/13 09:30:22;;;;;;;0.73;0.73;;;9.30;99.90;;;;;;5049402;28;20713;-76
2021/04/13 09:32:49;;;;;;;0.40;0.40;;;9.20;99.90;;;;;;5049865;28;20608;-76
2021/04/13 09:35:18;;;;;;;0.20;0.20;;;9.60;99.90;;;;;;5053817;28;20237;-76
2021/04/13 09:38:27;;;;;;;0.52;0.52;;;9.40;99.90;;;;;;5053823;28;20171;-76
2021/04/13 09:41:18;;;;;;;0.57;0.57;;;9.60;99.90;;;;;;5030753;28;20426;-77
2021/04/13 09:44:26;;;;;;;0.20;0.20;;;9.60;99.90;;;;;;5032959;28;20651;-76
2021/04/13 09:47:08;;;;;;;0.52;0.52;;;9.50;99.90;;;;;;5033158;28;20192;-77
2021/04/13 09:49:40;;;;;;;0.30;0.30;;;9.40;99.90;;;;;;5032719;28;20218;-77
2021/04/13 09:52:27;;;;;;;0.40;0.40;;;9.40;99.90;;;;;;5038092;28;20182;-78
2021/04/13 09:55:02;;;;;;;0.20;0.20;;;9.70;99.90;;;;;;5049622;28;20218;-76
2021/04/13 09:57:58;;;;;;;0.30;0.30;;;10.00;99.90;;;;;;5050751;28;20187;-76
2021/04/13 10:00:54;;;;;;;0.30;0.30;;;10.00;99.90;;;;;;5044656;28;20164;-76
2021/04/13 10:03:38;;;;;;;0.20;0.20;;;10.40;99.90;;;;;;5044303;28;20175;-75
2021/04/13 10:06:06;;;;;;;0.40;0.40;;;10.60;99.90;;;;;;5050389;28;20240;-75
2021/04/13 10:08:34;;;;;;;0.20;0.20;;;10.50;99.90;;;;;;5052263;28;20163;-76
2021/04/13 10:11:11;;;;;;;0.85;0.85;;;10.10;99.90;;;;;;5051838;28;20247;-77
2021/04/13 10:13:43;;;;;;;0.38;0.38;;;10.60;99.90;;;;;;5052481;28;20519;-77
2021/04/13 10:16:51;;;;;;;0.50;0.50;;;10.80;99.90;;;;;;5052403;28;20221;-78
2021/04/13 10:19:25;;;;;;;0.20;0.20;;;11.20;99.90;;;;;;5052131;28;20258;-76
2021/04/13 10:22:25;;;;;;;0.43;0.43;;;11.20;99.90;;;;;;5055432;28;20518;-77
2021/04/13 10:25:28;;;;;;;3.70;1.05;;;11.00;99.90;;;;;;5072277;28;20162;-77
2021/04/13 10:28:35;;;;;;;0.47;0.47;;;10.90;99.90;;;;;;5072305;28;20166;-78
2021/04/13 10:31:06;;;;;;;0.50;0.50;;;10.50;99.90;;;;;;5072152;28;20154;-77
2021/04/13 10:33:50;;;;;;;0.75;0.68;;;10.30;99.90;;;;;;5071087;28;20274;-77
2021/04/13 10:36:31;;;;;;;0.52;0.52;;;10.20;99.90;;;;;;5070932;28;20198;-77
2021/04/13 10:39:30;;;;;;;0.75;0.75;;;10.00;99.90;;;;;;5072202;28;20171;-77
2021/04/13 10:42:17;;;;;;;0.63;0.63;;;10.30;99.90;;;;;;5071916;28;20947;-77
2021/04/13 10:45:11;;;;;;;0.77;0.77;;;10.40;99.90;;;;;;5072809;28;20570;-78
2021/04/13 10:47:45;;;;;;;1.02;0.93;;;10.50;99.90;;;;;;5071954;28;20567;-77
2021/04/13 10:50:28;;;;;;;0.30;0.30;;;10.60;99.90;;;;;;5071910;28;20642;-77
2021/04/13 10:53:18;;;;;;;0.30;0.30;;;10.90;99.90;;;;;;5071339;28;20175;-78
2021/04/13 10:55:58;;;;;;;0.50;0.50;;;11.20;99.90;;;;;;5071868;28;20739;-77
2021/04/13 10:58:48;;;;;;;0.65;0.50;;;10.70;99.90;;;;;;5070722;28;20163;-78
2021/04/13 11:01:46;;;;;;;0.35;0.35;;;10.60;99.90;;;;;;5070071;28;20182;-76
2021/04/13 11:04:49;;;;;;;0.20;0.20;;;10.30;99.90;;;;;;5072288;28;20563;-77
2021/04/13 11:08:00;;;;;;;0.68;0.68;;;10.20;99.90;;;;;;5070440;28;20670;-78
2021/04/13 11:10:55;;;;;;;2.30;0.85;;;10.60;99.90;;;;;;5047510;28;20262;-77
2021/04/13 11:13:37;;;;;;;0.98;0.77;;;10.70;99.90;;;;;;5069494;28;20434;-78
2021/04/13 11:16:27;;;;;;;0.50;0.50;;;11.30;99.90;;;;;;5071821;28;20202;-78
2021/04/13 11:19:19;;;;;;;3.88;1.00;;;11.80;99.90;;;;;;5070284;28;20271;-79
2021/04/13 11:22:05;;;;;;;0.85;0.85;;;11.70;99.90;;;;;;5071689;28;20182;-79
2021/04/13 11:24:58;;;;;;;0.30;0.30;;;11.80;99.90;;;;;;5071881;28;20163;-77
2021/04/13 11:28:05;;;;;;;1.45;0.77;;;11.80;99.90;;;;;;5072127;28;20545;-78
2021/04/13 11:33:28;;;;;;;0.63;0.60;;;11.20;99.90;;;;;;5050678;28;20566;-76
2021/04/13 11:36:18;;;;;;;0.95;0.95;;;10.80;99.90;;;;;;5052246;28;20618;-77
2021/04/13 11:39:01;;;;;;;0.50;0.50;;;10.70;99.50;;;;;;5052635;28;20545;-77
2021/04/13 11:42:06;;;;;;;0.55;0.55;;;10.60;99.10;;;;;;5052408;28;20684;-76
2021/04/13 11:44:39;;;;;;;0.47;0.47;;;10.40;98.70;;;;;;5052212;28;20486;-76
2021/04/13 11:47:43;;;;;;;7.32;0.93;;;10.40;98.70;;;;;;5052289;28;20547;-76
2021/04/13 11:50:37;;;;;;;0.40;0.40;;;10.20;98.80;;;;;;4990944;28;20236;-76
2021/04/13 11:53:06;;;;;;;2.70;1.10;;;10.40;98.80;;;;;;5052411;28;20554;-77
2021/04/13 11:55:46;;;;;;;0.35;0.35;;;10.40;98.70;;;;;;5052063;28;20653;-77
2021/04/13 11:58:24;;;;;;;0.28;0.28;;;10.70;97.70;;;;;;5052075;28;20512;-76
2021/04/13 12:01:10;;;;;;;0.45;0.45;;;11.10;99.40;;;;;;5052318;28;20254;-77
2021/04/13 12:03:37;;;;;;;0.88;0.82;;;11.30;97.80;;;;;;5050837;28;20228;-77
2021/04/13 12:06:12;;;;;;;0.57;0.57;;;11.10;98.40;;;;;;5052290;28;20526;-77
2021/04/13 12:08:45;;;;;;;0.40;0.40;;;11.30;98.70;;;;;;5054049;28;20568;-77
2021/04/13 12:11:36;;;;;;;0.50;0.50;;;11.20;98.70;;;;;;5056100;28;20502;-77
2021/04/13 12:14:43;;;;;;;0.40;0.40;;;11.00;97.40;;;;;;5055806;28;20650;-76
2021/04/13 12:17:29;;;;;;;0.55;0.55;;;10.90;97.10;;;;;;5055618;28;20666;-77
2021/04/13 12:20:26;;;;;;;0.40;0.40;;;10.90;96.80;;;;;;5056112;28;20163;-77
2021/04/13 12:23:04;;;;;;;0.38;0.38;;;10.80;96.60;;;;;;5055777;28;20560;-77
2021/04/13 12:25:33;;;;;;;0.32;0.32;;;10.90;95.30;;;;;;5055723;28;20592;-76
2021/04/13 12:28:10;;;;;;;1.05;1.05;;;10.70;95.30;;;;;;5055290;28;20508;-77
2021/04/13 12:30:42;;;;;;;0.50;0.50;;;11.00;96.30;;;;;;5054368;28;20563;-77
2021/04/13 12:33:10;;;;;;;0.52;0.52;;;11.30;94.90;;;;;;5034232;28;20511;-77
2021/04/13 12:35:52;;;;;;;0.50;0.50;;;11.40;95.10;;;;;;5033954;28;20600;-77
2021/04/13 12:38:49;;;;;;;0.40;0.40;;;11.30;95.10;;;;;;5035752;28;20521;-77
2021/04/13 12:41:26;;;;;;;0.65;0.50;;;11.40;94.40;;;;;;5035677;28;20510;-77
2021/04/13 12:44:13;;;;;;;0.28;0.28;;;11.40;96.10;;;;;;5035677;28;20575;-77
2021/04/13 12:46:40;;;;;;;0.40;0.40;;;11.70;94.90;;;;;;5035389;28;20592;-77
2021/04/13 12:49:12;;;;;;;0.32;0.32;;;11.90;93.70;;;;;;5033941;28;20577;-77
2021/04/13 12:51:57;;;;;;;0.57;0.50;;;11.80;92.70;;;;;;5035487;28;20575;-77
2021/04/13 12:54:33;;;;;;;0.50;0.50;;;11.60;91.40;;;;;;5035442;28;20621;-77
2021/04/13 12:57:17;;;;;;;0.50;0.50;;;11.50;90.80;;;;;;5035311;28;20532;-78
2021/04/13 12:59:44;;;;;;;0.28;0.28;;;11.30;89.40;;;;;;5036133;28;20507;-77
2021/04/13 13:02:34;;;;;;;0.43;0.43;;;11.10;90.70;;;;;;5036717;28;20619;-78
2021/04/13 13:05:00;;;;;;;2.53;0.90;;;11.30;92.40;;;;;;5049049;28;20167;-76
2021/04/13 13:07:31;;;;;;;0.20;0.20;;;11.30;92.70;;;;;;5049572;28;20237;-77
2021/04/13 13:10:09;;;;;;;0.45;0.40;;;11.10;90.70;;;;;;5049279;28;20685;-78
2021/04/13 13:12:38;;;;;;;0.40;0.40;;;11.10;91.20;;;;;;5036031;28;20509;-77
2021/04/13 13:15:14;;;;;;;0.30;0.30;;;11.10;90.50;;;;;;5033931;28;20613;-77
2021/04/13 13:17:49;;;;;;;0.68;0.60;;;11.20;90.10;;;;;;5034824;28;20218;-77
2021/04/13 13:20:31;;;;;;;0.50;0.50;;;11.40;91.20;;;;;;5033562;28;20527;-76
2021/04/13 13:22:58;;;;;;;0.30;0.30;;;11.70;88.40;;;;;;5034717;28;20170;-76
2021/04/13 13:25:29;;;;;;;0.82;0.63;;;11.80;89.10;;;;;;5034749;28;20174;-77
2021/04/13 13:28:23;;;;;;;0.50;0.50;;;11.80;90.00;;;;;;5035024;28;20167;-77
2021/04/13 13:30:50;;;;;;;0.30;0.30;;;11.70;88.40;;;;;;5036172;28;20176;-77
2021/04/13 13:33:17;;;;;;;6.10;1.38;;;11.80;89.80;;;;;;5056640;28;20171;-76
2021/04/13 13:35:43;;;;;;;0.40;0.40;;;11.60;88.30;;;;;;5056306;28;20206;-77
2021/04/13 13:38:13;;;;;;;0.22;0.22;;;11.70;87.80;;;;;;5074528;28;20610;-77
2021/04/13 13:40:41;;;;;;;0.40;0.40;;;11.70;86.70;;;;;;5074223;28;20159;-77
2021/04/13 13:43:12;;;;;;;5.90;1.95;;;11.60;85.40;;;;;;5074210;28;20173;-76
2021/04/13 13:45:43;;;;;;;1.83;1.00;;;11.80;85.70;;;;;;5074495;28;20269;-76
2021/04/13 13:48:26;;;;;;;1.65;0.60;;;11.70;85.70;;;;;;5074307;28;20212;-79
2021/04/13 13:51:23;;;;;;;0.45;0.45;;;11.60;85.20;;;;;;5056155;28;20526;-77
2021/04/13 13:53:58;;;;;;;1.70;0.88;;;11.60;85.30;;;;;;5074024;28;20183;-77